sensor_id;sensor_type;location;lat;lon;timestamp;pressure;altitude;pressure_sealevel;temperature;humidity
19236;BME280;9752;54.270;12.470;2023-05-01T00:01:42;102624.06;;;-0.55;100.00
19236;BME280;9752;54.270;12.470;2023-05-01T00:06:43;102634.69;;;-0.52;100.00
19236;BME280;9752;54.270;12.470;2023-05-01T00:11:45;102641.41;;;-0.53;100.00
19236;BME280;9752;54.270;12.470;2023-05-01T00:16:48;102641.50;;;-0.46;100.00
19236;BME280;9752;54.270;12.470;2023-05-01T00:21:50;102651.63;;;-0.53;100.00
19236;BME280;9752;54.270;12.470;2023-05-01T00:26:52;102656.28;;;-0.56;100.00
19236;BME280;9752;54.270;12.470;2023-05-01T00:31:55;102655.03;;;-0.65;100.00
19236;BME280;9752;54.270;12.470;2023-05-01T00:36:57;102651.19;;;-0.56;100.00
19236;BME280;9752;54.270;12.470;2023-05-01T00:41:59;102660.34;;;-0.64;100.00
19236;BME280;9752;54.270;12.470;2023-05-01T00:47:02;102652.09;;;-0.68;100.00
19236;BME280;9752;54.270;12.470;2023-05-01T00:52:04;102655.78;;;-0.66;100.00
19236;BME280;9752;54.270;12.470;2023-05-01T00:57:06;102661.06;;;-0.77;100.00
19236;BME280;9752;54.270;12.470;2023-05-01T01:02:10;102661.34;;;-0.69;100.00
19236;BME280;9752;54.270;12.470;2023-05-01T01:07:17;102667.88;;;-0.71;100.00
19236;BME280;9752;54.270;12.470;2023-05-01T01:12:25;102670.63;;;-0.69;100.00
19236;BME280;9752;54.270;12.470;2023-05-01T01:17:31;102671.34;;;-0.70;100.00
19236;BME280;9752;54.270;12.470;2023-05-01T01:22:38;102676.75;;;-0.74;100.00
19236;BME280;9752;54.270;12.470;2023-05-01T01:28:00;102676.59;;;-0.82;100.00
19236;BME280;9752;54.270;12.470;2023-05-01T01:33:24;;;;-0.83;
19236;BME280;9752;54.270;12.470;2023-05-01T01:38:36;102674.19;;;-0.87;100.00
19236;BME280;9752;54.270;12.470;2023-05-01T01:43:44;102667.75;;;-0.91;100.00
19236;BME280;9752;54.270;12.470;2023-05-01T01:48:49;102663.53;;;-1.03;100.00
19236;BME280;9752;54.270;12.470;2023-05-01T01:53:55;102657.09;;;-1.07;100.00
19236;BME280;9752;54.270;12.470;2023-05-01T01:59:01;102673.31;;;-0.93;100.00
19236;BME280;9752;54.270;12.470;2023-05-01T02:04:06;102669.88;;;-0.94;100.00
19236;BME280;9752;54.270;12.470;2023-05-01T02:09:11;102672.94;;;-0.96;100.00
19236;BME280;9752;54.270;12.470;2023-05-01T02:14:13;102678.19;;;-0.95;100.00
19236;BME280;9752;54.270;12.470;2023-05-01T02:19:17;102681.25;;;-0.98;100.00
19236;BME280;9752;54.270;12.470;2023-05-01T02:24:22;102691.16;;;-0.93;100.00
19236;BME280;9752;54.270;12.470;2023-05-01T02:29:24;102693.91;;;-0.92;100.00
19236;BME280;9752;54.270;12.470;2023-05-01T02:34:27;102693.69;;;-0.93;100.00
19236;BME280;9752;54.270;12.470;2023-05-01T02:39:30;102690.41;;;-1.05;100.00
19236;BME280;9752;54.270;12.470;2023-05-01T02:44:38;102682.50;;;-1.20;100.00
19236;BME280;9752;54.270;12.470;2023-05-01T02:49:41;102679.41;;;-1.30;100.00
19236;BME280;9752;54.270;12.470;2023-05-01T02:54:44;102673.34;;;-1.25;100.00
19236;BME280;9752;54.270;12.470;2023-05-01T02:59:47;102668.16;;;-1.19;100.00
19236;BME280;9752;54.270;12.470;2023-05-01T03:04:48;102680.22;;;-1.05;100.00
19236;BME280;9752;54.270;12.470;2023-05-01T03:09:51;102685.31;;;-1.05;100.00
19236;BME280;9752;54.270;12.470;2023-05-01T03:14:53;102685.53;;;-1.04;100.00
19236;BME280;9752;54.270;12.470;2023-05-01T03:19:54;102687.84;;;-1.05;100.00
19236;BME280;9752;54.270;12.470;2023-05-01T03:24:58;102686.59;;;-1.14;100.00
19236;BME280;9752;54.270;12.470;2023-05-01T03:30:00;102694.38;;;-1.07;100.00
19236;BME280;9752;54.270;12.470;2023-05-01T03:35:05;102687.31;;;-1.15;100.00
19236;BME280;9752;54.270;12.470;2023-05-01T03:40:11;102692.03;;;-1.06;100.00
19236;BME280;9752;54.270;12.470;2023-05-01T03:45:31;102693.38;;;-1.02;100.00
19236;BME280;9752;54.270;12.470;2023-05-01T03:50:33;102690.13;;;-1.01;100.00
19236;BME280;9752;54.270;12.470;2023-05-01T03:55:37;102696.53;;;-0.98;100.00
19236;BME280;9752;54.270;12.470;2023-05-01T04:00:39;102697.88;;;-0.94;100.00
19236;BME280;9752;54.270;12.470;2023-05-01T04:05:42;102704.16;;;-0.79;100.00
19236;BME280;9752;54.270;12.470;2023-05-01T04:10:45;102714.38;;;-0.66;100.00
19236;BME280;9752;54.270;12.470;2023-05-01T04:15:47;102724.94;;;-0.45;100.00
19236;BME280;9752;54.270;12.470;2023-05-01T04:20:49;102731.38;;;-0.28;100.00
19236;BME280;9752;54.270;12.470;2023-05-01T04:25:53;102741.00;;;-0.07;100.00
19236;BME280;9752;54.270;12.470;2023-05-01T04:30:55;102745.47;;;0.14;100.00
19236;BME280;9752;54.270;12.470;2023-05-01T04:35:57;102742.09;;;0.33;100.00
19236;BME280;9752;54.270;12.470;2023-05-01T04:41:01;102758.09;;;0.58;100.00
19236;BME280;9752;54.270;12.470;2023-05-01T04:46:03;102764.38;;;0.80;100.00
19236;BME280;9752;54.270;12.470;2023-05-01T04:51:04;102777.97;;;1.06;100.00
19236;BME280;9752;54.270;12.470;2023-05-01T04:56:09;102780.16;;;1.23;100.00
19236;BME280;9752;54.270;12.470;2023-05-01T05:01:11;102785.56;;;1.52;100.00
19236;BME280;9752;54.270;12.470;2023-05-01T05:06:13;102791.28;;;1.84;100.00
19236;BME280;9752;54.270;12.470;2023-05-01T05:11:16;102799.44;;;2.21;100.00
19236;BME280;9752;54.270;12.470;2023-05-01T05:16:37;102806.25;;;2.62;100.00
19236;BME280;9752;54.270;12.470;2023-05-01T05:21:39;102800.84;;;2.88;100.00
19236;BME280;9752;54.270;12.470;2023-05-01T05:26:42;102802.03;;;3.19;100.00
19236;BME280;9752;54.270;12.470;2023-05-01T05:31:44;102814.56;;;3.73;100.00
19236;BME280;9752;54.270;12.470;2023-05-01T05:36:46;102820.03;;;4.34;100.00
19236;BME280;9752;54.270;12.470;2023-05-01T05:41:51;102815.44;;;4.90;100.00
19236;BME280;9752;54.270;12.470;2023-05-01T05:46:54;102808.88;;;5.45;100.00
19236;BME280;9752;54.270;12.470;2023-05-01T05:52:03;102798.47;;;6.06;100.00
19236;BME280;9752;54.270;12.470;2023-05-01T05:57:06;102756.69;;;6.72;100.00
19236;BME280;9752;54.270;12.470;2023-05-01T06:02:12;102706.25;;;7.32;100.00
19236;BME280;9752;54.270;12.470;2023-05-01T06:07:14;102613.09;;;7.73;100.00
19236;BME280;9752;54.270;12.470;2023-05-01T06:12:18;102534.38;;;8.21;100.00
19236;BME280;9752;54.270;12.470;2023-05-01T06:17:19;102446.34;;;8.65;100.00
19236;BME280;9752;54.270;12.470;2023-05-01T06:22:21;102353.59;;;8.97;100.00
19236;BME280;9752;54.270;12.470;2023-05-01T06:27:41;102251.66;;;9.35;100.00
19236;BME280;9752;54.270;12.470;2023-05-01T06:32:43;102158.25;;;9.63;100.00
19236;BME280;9752;54.270;12.470;2023-05-01T06:37:45;102095.03;;;9.91;100.00
19236;BME280;9752;54.270;12.470;2023-05-01T06:42:48;102061.78;;;10.39;100.00
19236;BME280;9752;54.270;12.470;2023-05-01T06:47:50;102009.53;;;10.66;100.00
19236;BME280;9752;54.270;12.470;2023-05-01T06:52:51;101969.91;;;10.91;100.00
19236;BME280;9752;54.270;12.470;2023-05-01T06:57:54;101967.81;;;10.75;100.00
19236;BME280;9752;54.270;12.470;2023-05-01T07:02:56;101959.03;;;10.85;100.00
19236;BME280;9752;54.270;12.470;2023-05-01T07:07:58;101945.31;;;11.31;100.00
19236;BME280;9752;54.270;12.470;2023-05-01T07:13:01;101948.16;;;11.82;100.00
19236;BME280;9752;54.270;12.470;2023-05-01T07:18:03;101931.22;;;11.75;100.00
19236;BME280;9752;54.270;12.470;2023-05-01T07:23:05;101932.56;;;11.82;100.00
19236;BME280;9752;54.270;12.470;2023-05-01T07:28:10;101929.84;;;12.16;100.00
19236;BME280;9752;54.270;12.470;2023-05-01T07:33:12;101921.00;;;12.25;100.00
19236;BME280;9752;54.270;12.470;2023-05-01T07:38:14;101924.66;;;12.16;100.00
19236;BME280;9752;54.270;12.470;2023-05-01T07:43:17;101920.00;;;12.23;100.00
19236;BME280;9752;54.270;12.470;2023-05-01T07:48:19;101913.22;;;12.62;100.00
19236;BME280;9752;54.270;12.470;2023-05-01T07:53:21;101915.06;;;13.02;100.00
19236;BME280;9752;54.270;12.470;2023-05-01T07:58:24;101898.13;;;13.34;100.00
19236;BME280;9752;54.270;12.470;2023-05-01T08:03:26;101905.97;;;13.47;100.00
19236;BME280;9752;54.270;12.470;2023-05-01T08:08:28;101885.28;;;13.63;100.00
19236;BME280;9752;54.270;12.470;2023-05-01T08:13:31;101883.88;;;13.82;100.00
19236;BME280;9752;54.270;12.470;2023-05-01T08:18:33;101882.56;;;13.75;100.00
19236;BME280;9752;54.270;12.470;2023-05-01T08:23:35;101876.97;;;13.82;100.00
19236;BME280;9752;54.270;12.470;2023-05-01T08:28:38;101866.69;;;14.12;100.00
19236;BME280;9752;54.270;12.470;2023-05-01T08:33:39;101857.81;;;14.23;100.00
19236;BME280;9752;54.270;12.470;2023-05-01T08:38:43;101849.50;;;14.57;100.00
19236;BME280;9752;54.270;12.470;2023-05-01T08:43:47;101844.63;;;14.63;100.00
19236;BME280;9752;54.270;12.470;2023-05-01T08:48:49;101836.25;;;14.69;100.00
19236;BME280;9752;54.270;12.470;2023-05-01T08:53:51;101838.31;;;14.60;100.00
19236;BME280;9752;54.270;12.470;2023-05-01T08:58:57;101838.13;;;14.57;100.00
19236;BME280;9752;54.270;12.470;2023-05-01T09:04:01;101823.25;;;14.56;100.00
19236;BME280;9752;54.270;12.470;2023-05-01T09:09:03;101824.75;;;14.80;100.00
19236;BME280;9752;54.270;12.470;2023-05-01T09:14:06;101817.91;;;14.97;100.00
19236;BME280;9752;54.270;12.470;2023-05-01T09:19:08;101820.53;;;15.12;100.00
19236;BME280;9752;54.270;12.470;2023-05-01T09:24:10;101804.63;;;15.39;100.00
19236;BME280;9752;54.270;12.470;2023-05-01T09:29:36;101799.94;;;15.33;100.00
19236;BME280;9752;54.270;12.470;2023-05-01T09:34:38;101795.53;;;15.32;100.00
19236;BME280;9752;54.270;12.470;2023-05-01T09:39:40;101793.44;;;15.73;100.00
19236;BME280;9752;54.270;12.470;2023-05-01T09:44:42;101783.50;;;15.82;100.00
19236;BME280;9752;54.270;12.470;2023-05-01T09:49:45;101781.50;;;16.09;100.00
19236;BME280;9752;54.270;12.470;2023-05-01T09:54:49;101779.53;;;16.05;100.00
19236;BME280;9752;54.270;12.470;2023-05-01T10:00:02;101768.63;;;16.30;100.00
19236;BME280;9752;54.270;12.470;2023-05-01T10:05:08;101768.94;;;16.20;100.00
19236;BME280;9752;54.270;12.470;2023-05-01T10:10:17;101764.19;;;16.29;100.00
19236;BME280;9752;54.270;12.470;2023-05-01T10:15:20;101756.22;;;16.61;100.00
19236;BME280;9752;54.270;12.470;2023-05-01T10:20:23;101753.25;;;16.36;100.00
19236;BME280;9752;54.270;12.470;2023-05-01T10:25:26;101745.06;;;16.65;100.00
19236;BME280;9752;54.270;12.470;2023-05-01T10:30:31;101742.50;;;16.83;100.00
19236;BME280;9752;54.270;12.470;2023-05-01T10:35:35;101738.94;;;16.98;100.00
19236;BME280;9752;54.270;12.470;2023-05-01T10:40:46;101717.38;;;17.04;97.48
19236;BME280;9752;54.270;12.470;2023-05-01T10:45:49;101709.03;;;17.31;96.47
19236;BME280;9752;54.270;12.470;2023-05-01T10:51:06;101702.97;;;17.14;92.78
19236;BME280;9752;54.270;12.470;2023-05-01T10:56:40;101698.19;;;17.05;93.32
19236;BME280;9752;54.270;12.470;2023-05-01T11:01:45;101679.94;;;17.64;94.46
19236;BME280;9752;54.270;12.470;2023-05-01T11:07:14;101683.84;;;17.91;94.36
19236;BME280;9752;54.270;12.470;2023-05-01T11:12:47;101681.50;;;17.98;90.15
19236;BME280;9752;54.270;12.470;2023-05-01T11:17:51;101674.16;;;17.90;86.59
19236;BME280;9752;54.270;12.470;2023-05-01T11:22:54;101671.22;;;18.02;87.69
19236;BME280;9752;54.270;12.470;2023-05-01T11:27:57;101656.94;;;18.38;87.98
19236;BME280;9752;54.270;12.470;2023-05-01T11:33:01;101653.50;;;18.39;88.61
19236;BME280;9752;54.270;12.470;2023-05-01T11:38:03;101647.41;;;18.40;86.88
19236;BME280;9752;54.270;12.470;2023-05-01T11:43:06;101635.00;;;18.79;88.07
19236;BME280;9752;54.270;12.470;2023-05-01T11:48:14;101632.47;;;18.60;87.28
19236;BME280;9752;54.270;12.470;2023-05-01T11:53:16;101633.22;;;18.57;88.43
19236;BME280;9752;54.270;12.470;2023-05-01T11:58:29;101614.19;;;19.06;88.50
19236;BME280;9752;54.270;12.470;2023-05-01T12:03:43;101617.19;;;18.93;85.45
19236;BME280;9752;54.270;12.470;2023-05-01T12:08:47;101605.09;;;19.21;86.08
19236;BME280;9752;54.270;12.470;2023-05-01T12:13:50;101588.09;;;18.88;77.33
19236;BME280;9752;54.270;12.470;2023-05-01T12:18:53;101585.31;;;19.30;83.51
19236;BME280;9752;54.270;12.470;2023-05-01T12:23:55;101581.94;;;19.35;78.50
19236;BME280;9752;54.270;12.470;2023-05-01T12:28:59;101584.78;;;19.65;82.55
19236;BME280;9752;54.270;12.470;2023-05-01T12:34:04;101571.97;;;19.50;77.25
19236;BME280;9752;54.270;12.470;2023-05-01T12:39:09;101558.56;;;19.18;69.01
19236;BME280;9752;54.270;12.470;2023-05-01T12:44:16;101571.81;;;19.45;74.04
19236;BME280;9752;54.270;12.470;2023-05-01T12:49:21;101570.69;;;19.63;73.15
19236;BME280;9752;54.270;12.470;2023-05-01T12:54:25;101555.84;;;19.89;68.90
19236;BME280;9752;54.270;12.470;2023-05-01T12:59:27;101543.69;;;19.93;68.81
19236;BME280;9752;54.270;12.470;2023-05-01T13:04:31;101538.28;;;19.89;66.26
19236;BME280;9752;54.270;12.470;2023-05-01T13:09:32;101555.28;;;19.98;72.31
19236;BME280;9752;54.270;12.470;2023-05-01T13:14:36;101542.09;;;19.72;66.29
19236;BME280;9752;54.270;12.470;2023-05-01T13:19:39;101560.28;;;19.66;68.64
19236;BME280;9752;54.270;12.470;2023-05-01T13:24:42;101530.19;;;19.83;64.18
19236;BME280;9752;54.270;12.470;2023-05-01T13:29:51;101515.66;;;20.49;63.92
19236;BME280;9752;54.270;12.470;2023-05-01T13:34:59;101516.72;;;19.50;58.69
19236;BME280;9752;54.270;12.470;2023-05-01T13:40:02;101533.16;;;18.73;61.20
19236;BME280;9752;54.270;12.470;2023-05-01T13:45:04;101517.53;;;20.26;66.78
19236;BME280;9752;54.270;12.470;2023-05-01T13:50:12;101484.44;;;19.80;54.03
19236;BME280;9752;54.270;12.470;2023-05-01T13:55:15;101527.19;;;19.00;81.02
19236;BME280;9752;54.270;12.470;2023-05-01T14:00:18;101528.38;;;18.41;89.03
19236;BME280;9752;54.270;12.470;2023-05-01T14:05:25;101531.09;;;17.60;89.19
19236;BME280;9752;54.270;12.470;2023-05-01T14:10:28;101514.44;;;17.38;92.96
19236;BME280;9752;54.270;12.470;2023-05-01T14:15:30;101514.28;;;17.35;93.91
19236;BME280;9752;54.270;12.470;2023-05-01T14:20:35;101510.81;;;17.55;100.00
19236;BME280;9752;54.270;12.470;2023-05-01T14:25:36;101499.38;;;17.53;100.00
19236;BME280;9752;54.270;12.470;2023-05-01T14:30:39;101488.81;;;17.73;98.22
19236;BME280;9752;54.270;12.470;2023-05-01T14:35:47;101471.28;;;18.14;95.32
19236;BME280;9752;54.270;12.470;2023-05-01T14:40:49;101479.28;;;18.17;100.00
19236;BME280;9752;54.270;12.470;2023-05-01T14:45:51;101477.59;;;17.56;100.00
19236;BME280;9752;54.270;12.470;2023-05-01T14:50:55;101465.03;;;19.02;98.22
19236;BME280;9752;54.270;12.470;2023-05-01T14:55:58;101452.69;;;19.24;96.92
19236;BME280;9752;54.270;12.470;2023-05-01T15:01:00;101444.06;;;19.28;95.28
19236;BME280;9752;54.270;12.470;2023-05-01T15:06:04;101433.06;;;20.20;91.59
19236;BME280;9752;54.270;12.470;2023-05-01T15:11:05;101434.28;;;20.31;86.11
19236;BME280;9752;54.270;12.470;2023-05-01T15:16:08;101420.06;;;21.49;80.29
19236;BME280;9752;54.270;12.470;2023-05-01T15:21:11;101404.34;;;22.28;75.47
19236;BME280;9752;54.270;12.470;2023-05-01T15:26:13;101401.19;;;22.06;73.68
19236;BME280;9752;54.270;12.470;2023-05-01T15:31:15;101375.44;;;23.25;67.26
19236;BME280;9752;54.270;12.470;2023-05-01T15:36:19;101360.66;;;24.60;60.07
19236;BME280;9752;54.270;12.470;2023-05-01T15:41:21;101397.03;;;23.03;66.25
19236;BME280;9752;54.270;12.470;2023-05-01T15:46:23;101417.88;;;21.67;69.13
19236;BME280;9752;54.270;12.470;2023-05-01T15:51:29;101431.03;;;20.99;74.68
19236;BME280;9752;54.270;12.470;2023-05-01T15:56:33;101439.06;;;20.44;83.16
19236;BME280;9752;54.270;12.470;2023-05-01T16:01:36;101435.78;;;18.46;86.88
19236;BME280;9752;54.270;12.470;2023-05-01T16:06:39;101432.69;;;17.48;91.52
19236;BME280;9752;54.270;12.470;2023-05-01T16:11:41;101385.94;;;21.23;81.00
19236;BME280;9752;54.270;12.470;2023-05-01T16:16:42;101406.69;;;20.48;76.68
19236;BME280;9752;54.270;12.470;2023-05-01T16:21:45;101417.22;;;19.38;87.00
19236;BME280;9752;54.270;12.470;2023-05-01T16:26:47;101434.03;;;16.98;98.59
19236;BME280;9752;54.270;12.470;2023-05-01T16:31:49;101425.34;;;16.99;100.00
19236;BME280;9752;54.270;12.470;2023-05-01T16:36:52;101427.78;;;15.66;100.00
19236;BME280;9752;54.270;12.470;2023-05-01T16:41:55;101433.53;;;15.08;100.00
19236;BME280;9752;54.270;12.470;2023-05-01T16:46:57;101420.72;;;14.79;100.00
19236;BME280;9752;54.270;12.470;2023-05-01T16:52:00;101420.59;;;14.76;100.00
19236;BME280;9752;54.270;12.470;2023-05-01T16:57:02;101426.88;;;14.49;100.00
19236;BME280;9752;54.270;12.470;2023-05-01T17:02:03;101421.34;;;14.42;100.00
19236;BME280;9752;54.270;12.470;2023-05-01T17:07:07;101406.41;;;14.56;100.00
19236;BME280;9752;54.270;12.470;2023-05-01T17:12:09;101414.59;;;14.46;100.00
19236;BME280;9752;54.270;12.470;2023-05-01T17:17:10;101411.78;;;13.95;100.00
19236;BME280;9752;54.270;12.470;2023-05-01T17:22:13;101400.59;;;13.66;100.00
19236;BME280;9752;54.270;12.470;2023-05-01T17:27:15;101394.69;;;13.39;100.00
19236;BME280;9752;54.270;12.470;2023-05-01T17:32:17;101389.69;;;13.29;100.00
19236;BME280;9752;54.270;12.470;2023-05-01T17:37:20;101390.97;;;13.21;100.00
19236;BME280;9752;54.270;12.470;2023-05-01T17:42:21;101383.44;;;13.40;100.00
19236;BME280;9752;54.270;12.470;2023-05-01T17:47:23;101378.59;;;13.32;100.00
19236;BME280;9752;54.270;12.470;2023-05-01T17:52:26;101375.69;;;13.12;100.00
19236;BME280;9752;54.270;12.470;2023-05-01T17:57:28;101377.53;;;12.42;100.00
19236;BME280;9752;54.270;12.470;2023-05-01T18:02:30;101376.53;;;11.98;100.00
19236;BME280;9752;54.270;12.470;2023-05-01T18:07:33;101372.03;;;11.56;100.00
19236;BME280;9752;54.270;12.470;2023-05-01T18:12:34;101370.38;;;11.04;100.00
19236;BME280;9752;54.270;12.470;2023-05-01T18:17:36;101370.81;;;10.60;100.00
19236;BME280;9752;54.270;12.470;2023-05-01T18:22:39;101376.13;;;10.13;100.00
19236;BME280;9752;54.270;12.470;2023-05-01T18:27:41;101379.34;;;9.73;100.00
19236;BME280;9752;54.270;12.470;2023-05-01T18:32:43;101376.88;;;9.51;100.00
19236;BME280;9752;54.270;12.470;2023-05-01T18:37:46;101374.50;;;9.31;100.00
19236;BME280;9752;54.270;12.470;2023-05-01T18:42:49;101375.81;;;9.02;100.00
19236;BME280;9752;54.270;12.470;2023-05-01T18:47:51;101379.41;;;8.70;100.00
19236;BME280;9752;54.270;12.470;2023-05-01T18:52:54;101382.25;;;8.51;100.00
19236;BME280;9752;54.270;12.470;2023-05-01T18:57:56;101380.47;;;8.40;100.00
19236;BME280;9752;54.270;12.470;2023-05-01T19:02:57;101379.53;;;8.28;100.00
19236;BME280;9752;54.270;12.470;2023-05-01T19:08:00;101365.22;;;8.21;100.00
19236;BME280;9752;54.270;12.470;2023-05-01T19:13:05;101367.94;;;8.23;100.00
19236;BME280;9752;54.270;12.470;2023-05-01T19:18:06;101365.66;;;8.37;100.00
19236;BME280;9752;54.270;12.470;2023-05-01T19:23:10;101371.72;;;8.38;100.00
19236;BME280;9752;54.270;12.470;2023-05-01T19:28:11;101363.31;;;8.18;100.00
19236;BME280;9752;54.270;12.470;2023-05-01T19:33:13;101360.94;;;7.99;100.00
19236;BME280;9752;54.270;12.470;2023-05-01T19:38:16;101366.53;;;7.94;100.00
19236;BME280;9752;54.270;12.470;2023-05-01T19:43:18;101370.47;;;7.68;100.00
19236;BME280;9752;54.270;12.470;2023-05-01T19:48:19;101362.56;;;7.45;100.00
19236;BME280;9752;54.270;12.470;2023-05-01T19:53:23;101369.00;;;7.50;100.00
19236;BME280;9752;54.270;12.470;2023-05-01T19:58:24;101369.69;;;7.37;100.00
19236;BME280;9752;54.270;12.470;2023-05-01T20:03:27;101373.72;;;7.23;100.00
19236;BME280;9752;54.270;12.470;2023-05-01T20:08:30;101365.97;;;7.23;100.00
19236;BME280;9752;54.270;12.470;2023-05-01T20:13:31;101365.47;;;7.07;100.00
19236;BME280;9752;54.270;12.470;2023-05-01T20:18:33;101366.78;;;6.91;100.00
19236;BME280;9752;54.270;12.470;2023-05-01T20:23:37;101370.13;;;6.80;100.00
19236;BME280;9752;54.270;12.470;2023-05-01T20:28:39;101367.78;;;6.62;100.00
19236;BME280;9752;54.270;12.470;2023-05-01T20:33:41;101368.31;;;6.58;100.00
19236;BME280;9752;54.270;12.470;2023-05-01T20:38:44;101373.72;;;6.61;100.00
19236;BME280;9752;54.270;12.470;2023-05-01T20:43:47;101373.47;;;6.58;100.00
19236;BME280;9752;54.270;12.470;2023-05-01T20:48:49;101373.28;;;6.47;100.00
19236;BME280;9752;54.270;12.470;2023-05-01T20:53:52;101372.50;;;6.37;100.00
19236;BME280;9752;54.270;12.470;2023-05-01T20:58:54;101383.31;;;6.33;100.00
19236;BME280;9752;54.270;12.470;2023-05-01T21:03:56;101384.53;;;6.47;100.00
19236;BME280;9752;54.270;12.470;2023-05-01T21:09:00;101381.19;;;6.69;100.00
19236;BME280;9752;54.270;12.470;2023-05-01T21:14:01;101388.00;;;6.48;100.00
19236;BME280;9752;54.270;12.470;2023-05-01T21:19:03;101382.56;;;6.34;100.00
19236;BME280;9752;54.270;12.470;2023-05-01T21:24:07;101400.03;;;6.18;100.00
19236;BME280;9752;54.270;12.470;2023-05-01T21:29:11;101409.53;;;6.09;100.00
19236;BME280;9752;54.270;12.470;2023-05-01T21:34:16;101408.75;;;6.10;100.00
19236;BME280;9752;54.270;12.470;2023-05-01T21:39:19;101408.91;;;6.11;100.00
19236;BME280;9752;54.270;12.470;2023-05-01T21:44:28;101418.03;;;6.08;100.00
19236;BME280;9752;54.270;12.470;2023-05-01T21:49:30;101413.91;;;6.49;100.00
19236;BME280;9752;54.270;12.470;2023-05-01T21:54:34;101425.31;;;7.02;100.00
19236;BME280;9752;54.270;12.470;2023-05-01T21:59:37;101418.84;;;7.28;100.00
19236;BME280;9752;54.270;12.470;2023-05-01T22:04:39;101426.31;;;7.35;100.00
19236;BME280;9752;54.270;12.470;2023-05-01T22:09:42;101424.25;;;7.52;100.00
19236;BME280;9752;54.270;12.470;2023-05-01T22:14:45;101414.91;;;7.74;100.00
19236;BME280;9752;54.270;12.470;2023-05-01T22:19:46;101419.88;;;7.83;100.00
19236;BME280;9752;54.270;12.470;2023-05-01T22:24:50;101418.25;;;7.84;100.00
19236;BME280;9752;54.270;12.470;2023-05-01T22:29:52;101413.78;;;7.93;100.00
19236;BME280;9752;54.270;12.470;2023-05-01T22:34:53;101413.19;;;8.84;100.00
19236;BME280;9752;54.270;12.470;2023-05-01T22:39:56;101406.13;;;9.38;100.00
19236;BME280;9752;54.270;12.470;2023-05-01T22:44:58;101402.53;;;9.84;100.00
19236;BME280;9752;54.270;12.470;2023-05-01T22:50:00;101400.03;;;10.21;100.00
19236;BME280;9752;54.270;12.470;2023-05-01T22:55:04;101401.13;;;10.36;100.00
19236;BME280;9752;54.270;12.470;2023-05-01T23:00:07;101402.50;;;10.31;100.00
19236;BME280;9752;54.270;12.470;2023-05-01T23:05:09;101406.41;;;10.26;100.00
19236;BME280;9752;54.270;12.470;2023-05-01T23:10:13;101420.44;;;10.04;100.00
19236;BME280;9752;54.270;12.470;2023-05-01T23:15:22;101418.09;;;10.07;100.00
19236;BME280;9752;54.270;12.470;2023-05-01T23:20:23;101419.53;;;10.15;100.00
19236;BME280;9752;54.270;12.470;2023-05-01T23:25:26;101417.38;;;10.10;100.00
19236;BME280;9752;54.270;12.470;2023-05-01T23:30:28;101421.59;;;9.96;100.00
19236;BME280;9752;54.270;12.470;2023-05-01T23:35:30;101422.34;;;9.95;100.00
19236;BME280;9752;54.270;12.470;2023-05-01T23:40:33;101421.47;;;9.71;100.00
19236;BME280;9752;54.270;12.470;2023-05-01T23:45:36;101425.84;;;9.48;100.00
19236;BME280;9752;54.270;12.470;2023-05-01T23:50:38;101427.00;;;9.18;100.00
19236;BME280;9752;54.270;12.470;2023-05-01T23:55:41;101430.31;;;9.27;100.00
